Map

Track Data

SID SEASON NUMBER BASIN SUBBASIN NAME ISO_TIME NATURE LAT LON WMO_WIND WMO_PRES WMO_AGENCY TRACK_TYPE DIST2LAND LANDFALL IFLAG USA_AGENCY USA_ATCF_ID USA_LAT USA_LON USA_RECORD USA_STATUS USA_WIND USA_PRES USA_SSHS USA_R34_NE USA_R34_SE USA_R34_SW USA_R34_NW USA_R50_NE USA_R50_SE USA_R50_SW USA_R50_NW USA_R64_NE USA_R64_SE USA_R64_SW USA_R64_NW USA_POCI USA_ROCI USA_RMW USA_EYE TOKYO_LAT TOKYO_LON TOKYO_GRADE TOKYO_WIND TOKYO_PRES TOKYO_R50_DIR TOKYO_R50_LONG TOKYO_R50_SHORT TOKYO_R30_DIR TOKYO_R30_LONG TOKYO_R30_SHORT TOKYO_LAND CMA_LAT CMA_LON CMA_CAT CMA_WIND CMA_PRES HKO_LAT HKO_LON HKO_CAT HKO_WIND HKO_PRES NEWDELHI_LAT NEWDELHI_LON NEWDELHI_GRADE NEWDELHI_WIND NEWDELHI_PRES NEWDELHI_CI NEWDELHI_DP NEWDELHI_POCI REUNION_LAT REUNION_LON REUNION_TYPE REUNION_WIND REUNION_PRES REUNION_TNUM REUNION_CI REUNION_RMW REUNION_R34_NE REUNION_R34_SE REUNION_R34_SW REUNION_R34_NW REUNION_R50_NE REUNION_R50_SE REUNION_R50_SW REUNION_R50_NW REUNION_R64_NE REUNION_R64_SE REUNION_R64_SW REUNION_R64_NW BOM_LAT BOM_LON BOM_TYPE BOM_WIND BOM_PRES BOM_TNUM BOM_CI BOM_RMW BOM_R34_NE BOM_R34_SE BOM_R34_SW BOM_R34_NW BOM_R50_NE BOM_R50_SE BOM_R50_SW BOM_R50_NW BOM_R64_NE BOM_R64_SE BOM_R64_SW BOM_R64_NW BOM_ROCI BOM_POCI BOM_EYE BOM_POS_METHOD BOM_PRES_METHOD NADI_LAT NADI_LON NADI_CAT NADI_WIND NADI_PRES WELLINGTON_LAT WELLINGTON_LON WELLINGTON_WIND WELLINGTON_PRES DS824_LAT DS824_LON DS824_STAGE DS824_WIND DS824_PRES TD9636_LAT TD9636_LON TD9636_STAGE TD9636_WIND TD9636_PRES TD9635_LAT TD9635_LON TD9635_WIND TD9635_PRES TD9635_ROCI NEUMANN_LAT NEUMANN_LON NEUMANN_CLASS NEUMANN_WIND NEUMANN_PRES MLC_LAT MLC_LON MLC_CLASS MLC_WIND MLC_PRES USA_GUST BOM_GUST BOM_GUST_PER REUNION_GUST REUNION_GUST_PER USA_SEAHGT USA_SEARAD_NE USA_SEARAD_SE USA_SEARAD_SW USA_SEARAD_NW STORM_SPEED STORM_DIR
1994210N16144 1994 57 WP MM CAITLIN 1994-07-29 00:00:00 NR 15.5000 143.500 main 1978 1928 O_____________ jtwc_wp WP161994 15.5000 143.500 10 -1 11 297
1994210N16144 1994 57 WP MM CAITLIN 1994-07-29 03:00:00 NR 15.7502 143.000 main 1930 1882 P_____________ WP161994 15.7502 143.000 10 -1 11 297
1994210N16144 1994 57 WP MM CAITLIN 1994-07-29 06:00:00 NR 16.0000 142.500 main 1882 1834 O_____________ jtwc_wp WP161994 16.0000 142.500 10 -1 11 297
1994210N16144 1994 57 WP MM CAITLIN 1994-07-29 09:00:00 NR 16.2499 142.000 main 1834 1789 P_____________ WP161994 16.2499 142.000 10 -1 11 298
1994210N16144 1994 57 WP MM CAITLIN 1994-07-29 12:00:00 NR 16.5000 141.500 main 1789 1746 O_____________ jtwc_wp WP161994 16.5000 141.500 10 -1 11 298
1994210N16144 1994 57 WP MM CAITLIN 1994-07-29 15:00:00 NR 16.7649 141.000 main 1746 1701 P_____________ WP161994 16.7649 141.000 12 -1 11 298
1994210N16144 1994 57 WP MM CAITLIN 1994-07-29 18:00:00 NR 17.0000 140.500 main 1701 1656 O_____________ jtwc_wp WP161994 17.0000 140.500 15 -1 10 293
1994210N16144 1994 57 WP MM CAITLIN 1994-07-29 21:00:00 NR 17.1649 140.000 main 1656 1609 P_____________ WP161994 17.1649 140.000 15 -1 10 287
1994210N16144 1994 57 WP MM CAITLIN 1994-07-30 00:00:00 NR 17.3000 139.500 main 1609 1563 O_____________ jtwc_wp WP161994 17.3000 139.500 15 -1 10 287
1994210N16144 1994 57 WP MM CAITLIN 1994-07-30 03:00:00 NR 17.4499 139.000 main 1563 1521 P_____________ WP161994 17.4499 139.000 15 -1 10 287
1994210N16144 1994 57 WP MM CAITLIN 1994-07-30 06:00:00 NR 17.6000 138.500 main 1521 1477 O_____________ jtwc_wp WP161994 17.6000 138.500 15 -1 10 288
1994210N16144 1994 57 WP MM CAITLIN 1994-07-30 09:00:00 NR 17.7574 138.000 main 1481 1437 P_____________ WP161994 17.7574 138.000 15 -1 10 287
1994210N16144 1994 57 WP MM CAITLIN 1994-07-30 12:00:00 NR 17.9000 137.500 main 1437 1394 O_____________ jtwc_wp WP161994 17.9000 137.500 15 -1 10 285
1994210N16144 1994 57 WP MM CAITLIN 1994-07-30 15:00:00 NR 18.0074 137.000 main 1394 1352 P_____________ WP161994 18.0074 137.000 15 -1 10 282
1994210N16144 1994 57 WP MM CAITLIN 1994-07-30 18:00:00 NR 18.1000 136.500 main 1352 1311 O_____________ jtwc_wp WP161994 18.1000 136.500 15 -1 10 281
1994210N16144 1994 57 WP MM CAITLIN 1994-07-30 21:00:00 NR 18.1999 136.000 main 1311 1271 P_____________ WP161994 18.1999 136.000 15 -1 10 282
1994210N16144 1994 57 WP MM CAITLIN 1994-07-31 00:00:00 NR 18.3000 135.500 main 1271 1232 O_____________ jtwc_wp WP161994 18.3000 135.500 15 -1 10 282
1994210N16144 1994 57 WP MM CAITLIN 1994-07-31 03:00:00 NR 18.3999 135.000 main 1232 1194 P_____________ WP161994 18.3999 135.000 15 -1 10 282
1994210N16144 1994 57 WP MM CAITLIN 1994-07-31 06:00:00 NR 18.5000 134.500 main 1194 1151 O_____________ jtwc_wp WP161994 18.5000 134.500 15 -1 10 282
1994210N16144 1994 57 WP MM CAITLIN 1994-07-31 09:00:00 NR 18.6074 134.000 main 1151 1109 P_____________ WP161994 18.6074 134.000 17 -1 10 282
1994210N16144 1994 57 WP MM CAITLIN 1994-07-31 12:00:00 NR 18.7000 133.500 main 1109 1068 O_____________ jtwc_wp WP161994 18.7000 133.500 20 -1 10 279
1994210N16144 1994 57 WP MM CAITLIN 1994-07-31 15:00:00 NR 18.7574 133.000 main 1068 1023 P_____________ WP161994 18.7574 133.000 20 -1 10 276
1994210N16144 1994 57 WP MM CAITLIN 1994-07-31 18:00:00 NR 18.8000 132.500 main 1023 978 O_____________ jtwc_wp WP161994 18.8000 132.500 20 -1 10 276
1994210N16144 1994 57 WP MM CAITLIN 1994-07-31 21:00:00 NR 18.8499 132.000 main 978 907 P_____________ WP161994 18.8499 132.000 20 -1 13 274
1994210N16144 1994 57 WP MM CAITLIN 1994-08-01 00:00:00 TS 18.9000 131.100 main 907 850 O_O___________ jtwc_wp WP161994 18.9000 131.500 20 -1 18.9000 129.500 1 23 1003 15 274
1994210N16144 1994 57 WP MM CAITLIN 1994-08-01 03:00:00 TS 18.9508 130.412 main 855 792 P_P___________ WP161994 18.9424 131.000 20 -1 18.9677 129.238 1 23 1002 13 274
1994210N16144 1994 57 WP MM CAITLIN 1994-08-01 06:00:00 TS 19.0000 129.750 1004 tokyo main 792 740 OOO___________ jtwc_wp WP161994 19.0000 130.500 20 -1 19.0000 129.000 2 1004 0 0 0 19.0000 129.000 1 23 1002 11 274
1994210N16144 1994 57 WP MM CAITLIN 1994-08-01 09:00:00 TS 19.0253 129.275 main 740 699 PPP___________ WP161994 19.0924 130.000 20 -1 18.9724 128.800 2 1004 0 0 18.9848 128.787 1 23 1002 8 275
1994210N16144 1994 57 WP MM CAITLIN 1994-08-01 12:00:00 TS 19.0727 128.864 1004 tokyo main 699 648 OOO___________ jtwc_wp WP161994 19.2000 129.500 20 -1 19.0000 128.500 2 1004 0 0 0 19.0000 128.500 1 23 1002 9 280
1994210N16144 1994 57 WP MM CAITLIN 1994-08-01 15:00:00 TS 19.1800 128.358 main 648 597 PPP___________ WP161994 19.2999 129.000 22 -1 19.1201 128.038 2 1004 0 0 19.1201 128.038 1 26 1001 10 284
1994210N16144 1994 57 WP MM CAITLIN 1994-08-01 18:00:00 TS 19.3154 127.838 1004 tokyo main 587 548 OOOO__________ jtwc_wp WP161994 19.4000 128.500 25 -1 19.3000 127.500 2 1004 0 0 0 19.3000 127.500 1 29 1000 19.1000 127.900 TD 25 1002 10 286
1994210N16144 1994 57 WP MM CAITLIN 1994-08-01 21:00:00 TS 19.4539 127.343 main 540 501 PPPP__________ WP161994 19.4924 128.000 25 -1 19.5000 126.985 2 1003 0 0 19.5000 126.985 1 29 1000 19.1927 127.460 TD 27 1001 10 287
1994210N16144 1994 57 WP MM CAITLIN 1994-08-02 00:00:00 TS 19.5933 126.867 1002 tokyo main 501 454 OOOO__________ jtwc_wp WP161994 19.6000 127.500 25 -1 19.7000 126.500 2 1002 0 0 0 19.7000 126.500 1 29 1000 19.3000 127.000 TD 30 1000 9 287
1994210N16144 1994 57 WP MM CAITLIN 1994-08-02 03:00:00 TS 19.7230 126.417 main 454 419 PPPP__________ WP161994 19.7273 127.007 27 -1 19.8648 126.077 2 1001 0 0 19.8648 126.077 1 29 1000 19.4349 126.507 TD 30 1000 9 289
1994210N16144 1994 57 WP MM CAITLIN 1994-08-02 06:00:00 TS 19.8750 125.975 1000 tokyo main 423 390 OOOO__________ jtwc_wp WP161994 19.9000 126.500 30 -1 20.0000 125.700 2 1000 0 0 0 20.0000 125.700 1 29 1000 19.6000 126.000 TD 30 1000 9 290
1994210N16144 1994 57 WP MM CAITLIN 1994-08-02 09:00:00 TS 20.0261 125.535 main 380 356 PPPP__________ WP161994 20.1274 125.957 32 -1 20.0999 125.342 2 999 0 0 20.0999 125.342 1 29 999 19.7774 125.500 TD 32 999 9 292
1994210N16144 1994 57 WP MM CAITLIN 1994-08-02 12:00:00 TS 20.2000 125.100 35 998 tokyo main 356 336 OOOO__________ jtwc_wp WP161994 20.4000 125.400 35 0 20.2000 125.000 3 35 998 0 9 80 80 0 20.2000 125.000 1 29 998 20.0000 125.000 TS 35 998 9 295
1994210N16144 1994 57 WP MM CAITLIN 1994-08-02 15:00:00 TS 20.3967 124.673 main 336 321 PPPP__________ WP161994 20.6848 124.857 37 0 20.3274 124.657 3 37 996 0 9 90 90 20.3047 124.680 1 29 998 20.2699 124.500 TS 37 996 9 299
1994210N16144 1994 57 WP MM CAITLIN 1994-08-02 18:00:00 TS 20.6500 124.225 40 994 tokyo main 325 316 OOOO__________ jtwc_wp WP161994 21.0000 124.300 40 0 20.5000 124.300 3 40 994 0 9 100 100 0 20.5000 124.300 1 29 998 20.6000 124.000 TS 40 994 10 302
1994210N16144 1994 57 WP MM CAITLIN 1994-08-02 21:00:00 TS 20.9434 123.745 main 310 247 PPPP__________ WP161994 21.3349 123.707 45 0 20.6438 123.988 3 42 992 0 9 100 100 20.8249 123.795 1 33 996 20.9699 123.492 TS 42 992 12 306
1994210N16144 1994 57 WP MM CAITLIN 1994-08-03 00:00:00 TS 21.3500 123.200 45 990 tokyo main 244 175 OOOO__________ jtwc_wp WP161994 21.7000 123.100 50 0 21.0000 123.500 3 45 990 0 9 100 100 0 21.3000 123.200 2 38 995 21.4000 123.000 TS 45 990 14 311
1994210N16144 1994 57 WP MM CAITLIN 1994-08-03 03:00:00 TS 21.8973 122.584 45 990 tokyo main 175 90 POPP__________ WP161994 22.0922 122.507 55 0 21.7000 122.700 3 45 990 0 9 100 100 0 21.9422 122.580 2 43 990 21.8548 122.549 TS 45 990 17 316
1994210N16144 1994 57 WP MM CAITLIN 1994-08-03 06:00:00 TS 22.5500 121.950 45 990 tokyo main 83 10 OOOO__________ jtwc_wp WP161994 22.5000 121.900 60 0 22.7000 121.900 3 45 990 0 9 120 120 0 22.6000 121.900 3 48 985 22.4000 122.100 TS 45 990 16 316
1994210N16144 1994 57 WP MM CAITLIN 1994-08-03 09:00:00 TS 23.0710 121.346 40 992 tokyo main 0 0 POPP__________ WP161994 22.9297 121.265 55 0 23.1000 121.300 3 40 992 0 2 150 120 0 23.0948 121.164 3 48 985 23.1594 121.653 TS 45 990 17 307
1994210N16144 1994 57 WP MM CAITLIN 1994-08-03 12:00:00 TS 23.5500 120.525 40 992 tokyo main 0 0 OOOO__________ jtwc_wp WP161994 23.3000 120.600 50 0 23.6000 120.000 3 40 992 0 2 180 120 0 23.5000 120.400 3 48 985 23.8000 121.100 TS 45 990 16 296
1994210N16144 1994 57 WP MM CAITLIN 1994-08-03 15:00:00 TS 23.7612 119.793 40 992 tokyo main 37 37 POPP__________ WP161994 23.5373 119.907 52 0 23.6000 119.300 3 40 992 0 2 200 120 0 23.9100 119.620 3 48 987 23.9977 120.344 TS 42 991 14 284
1994210N16144 1994 57 WP MM CAITLIN 1994-08-03 18:00:00 TS 23.8750 119.075 40 992 tokyo main 84 45 OOOO__________ jtwc_wp WP161994 23.7000 119.200 55 0 23.6000 118.700 3 40 992 0 2 200 120 0 24.2000 118.900 3 48 990 24.0000 119.500 TS 40 992 13 280
1994210N16144 1994 57 WP MM CAITLIN 1994-08-03 21:00:00 TS 23.9936 118.393 main 45 0 PPPP__________ WP161994 23.8499 118.485 52 0 23.8251 118.106 3 40 992 0 2 200 120 24.2646 118.296 3 43 991 24.0348 118.684 TS 40 992 12 283
1994210N16144 1994 57 WP MM CAITLIN 1994-08-04 00:00:00 TS 24.1500 117.775 40 992 tokyo main 0 0 OOOO__________ jtwc_wp WP161994 24.0000 117.800 50 0 24.2000 117.600 3 40 992 0 2 200 120 0 24.3000 117.800 2 38 992 24.1000 117.900 TS 40 992 11 291
1994210N16144 1994 57 WP MM CAITLIN 1994-08-04 03:00:00 TS 24.3821 117.256 main 0 0 PPPP__________ WP161994 24.1622 117.177 45 0 24.6069 117.292 3 37 993 0 2 160 120 24.5046 117.392 2 38 992 24.2548 117.162 TS 35 993 10 301
1994210N16144 1994 57 WP MM CAITLIN 1994-08-04 06:00:00 TS 24.6867 116.793 35 994 tokyo main 0 0 OOOO__________ jtwc_wp WP161994 24.4000 116.600 40 0 25.0000 117.000 3 35 994 0 9 120 120 0 24.8000 117.000 2 38 992 24.5000 116.500 TD 30 994 11 307
1994210N16144 1994 57 WP MM CAITLIN 1994-08-04 09:00:00 TS 25.0282 116.302 main 0 0 PPPP__________ WP161994 24.7621 116.050 35 0 25.2726 116.530 3 994 0 9 25.1500 116.515 2 33 993 24.8278 115.926 TD 30 994 11 308
1994210N16144 1994 57 WP MM CAITLIN 1994-08-04 12:00:00 TS 25.3846 115.800 994 tokyo main 0 0 OOOO__________ jtwc_wp WP161994 25.2000 115.500 30 -1 25.5000 116.000 2 994 0 0 0 25.5000 116.000 1 29 994 25.2000 115.400 TD 30 994 11 307
1994210N16144 1994 57 WP MM CAITLIN 1994-08-04 15:00:00 TS 25.7190 115.305 main 0 0 PPP___________ WP161994 25.6423 114.915 27 -1 25.7498 115.500 2 995 0 0 25.7648 115.500 1 29 994 TD 11 306
1994210N16144 1994 57 WP MM CAITLIN 1994-08-04 18:00:00 TS 26.0273 114.809 996 tokyo main 0 0 OOO___________ jtwc_wp WP161994 26.1000 114.300 25 -1 26.0000 115.000 2 996 0 0 0 26.0000 115.000 1 29 994 11 304
1994210N16144 1994 57 WP MM CAITLIN 1994-08-04 21:00:00 TS 26.3105 114.332 main 0 0 PPP___________ WP161994 26.5531 113.659 22 -1 26.2498 114.500 2 996 0 0 26.2498 114.500 1 26 994 10 303
1994210N16144 1994 57 WP MM CAITLIN 1994-08-05 00:00:00 TS 26.5556 113.889 996 tokyo main 0 0 OOO___________ jtwc_wp WP161994 27.0000 113.000 20 -1 26.5000 114.000 2 996 0 0 0 26.5000 114.000 1 23 994 9 300
1994210N16144 1994 57 WP MM CAITLIN 1994-08-05 03:00:00 TS 26.7651 113.463 main 0 0 _PP___________ WP161994 -1 26.7651 113.463 2 996 0 0 26.7651 113.463 1 23 994 9 299
1994210N16144 1994 57 WP MM CAITLIN 1994-08-05 06:00:00 TS 27.0000 113.000 996 tokyo main 0 0 _OO___________ -1 27.0000 113.000 2 996 0 0 0 27.0000 113.000 1 23 994 8 301
1994210N16144 1994 57 WP MM CAITLIN 1994-08-05 09:00:00 TS 27.1664 112.708 main 0 0 _PP___________ -1 27.1647 112.712 2 997 0 0 27.1699 112.700 1 21 995 5 304
1994210N16144 1994 57 WP MM CAITLIN 1994-08-05 12:00:00 TS 27.3000 112.500 998 tokyo main 0 0 _OO___________ -1 27.3000 112.500 2 998 0 0 0 27.3000 112.500 0 19 996 5 304
1994210N16144 1994 57 WP MM CAITLIN 1994-08-05 15:00:00 TS 27.4425 112.250 main 0 0 _P____________ -1 27.4425 112.250 2 998 0 0 0 5 304
1994210N16144 1994 57 WP MM CAITLIN 1994-08-05 18:00:00 TS 27.6000 112.000 998 tokyo main 0 0 _O____________ -1 27.6000 112.000 2 998 0 0 0 6 308
1994210N16144 1994 57 WP MM CAITLIN 1994-08-05 21:00:00 TS 27.7901 111.750 main 0 0 _P____________ -1 27.7901 111.750 2 998 0 0 6 312
1994210N16144 1994 57 WP MM CAITLIN 1994-08-06 00:00:00 TS 28.0000 111.500 998 tokyo main 0 _O____________ -1 28.0000 111.500 2 998 0 0 0 6 314

Digital Typhoon Data and Search

About IBTrACS Database

This database is a web-friendly format of International Best Track Archive for Climate Stewardship (IBTrACS), a global best track data archive curated by NOAA dating back to 1842.

Updated: 2021-12-03